sensor_id;sensor_type;location;lat;lon;timestamp;P1;durP1;ratioP1;P2;durP2;ratioP2
78410;SDS011;67706;51.074;-1.796;2023-07-20T00:02:14;5.60;;;1.90;;
78410;SDS011;67706;51.074;-1.796;2023-07-20T00:04:40;4.15;;;2.10;;
78410;SDS011;67706;51.074;-1.796;2023-07-20T00:07:06;3.83;;;2.30;;
78410;SDS011;67706;51.074;-1.796;2023-07-20T00:09:32;3.47;;;2.22;;
78410;SDS011;67706;51.074;-1.796;2023-07-20T00:11:58;5.05;;;2.50;;
78410;SDS011;67706;51.074;-1.796;2023-07-20T00:14:26;4.10;;;2.38;;
78410;SDS011;67706;51.074;-1.796;2023-07-20T00:16:52;2.58;;;1.90;;
78410;SDS011;67706;51.074;-1.796;2023-07-20T00:19:21;4.28;;;2.10;;
78410;SDS011;67706;51.074;-1.796;2023-07-20T00:21:49;4.05;;;2.10;;
78410;SDS011;67706;51.074;-1.796;2023-07-20T00:24:15;2.95;;;1.92;;
78410;SDS011;67706;51.074;-1.796;2023-07-20T00:29:07;4.20;;;2.40;;
78410;SDS011;67706;51.074;-1.796;2023-07-20T00:34:02;4.85;;;2.55;;
78410;SDS011;67706;51.074;-1.796;2023-07-20T00:36:28;6.95;;;2.20;;
78410;SDS011;67706;51.074;-1.796;2023-07-20T00:38:55;4.78;;;2.22;;
78410;SDS011;67706;51.074;-1.796;2023-07-20T00:41:21;6.82;;;2.08;;
78410;SDS011;67706;51.074;-1.796;2023-07-20T00:43:47;6.45;;;2.08;;
78410;SDS011;67706;51.074;-1.796;2023-07-20T00:46:13;3.88;;;2.22;;
78410;SDS011;67706;51.074;-1.796;2023-07-20T00:48:40;5.75;;;2.28;;
78410;SDS011;67706;51.074;-1.796;2023-07-20T00:51:07;2.90;;;2.08;;
78410;SDS011;67706;51.074;-1.796;2023-07-20T00:53:33;3.30;;;2.08;;
78410;SDS011;67706;51.074;-1.796;2023-07-20T00:56:00;3.42;;;2.10;;
78410;SDS011;67706;51.074;-1.796;2023-07-20T01:00:53;4.15;;;2.13;;
78410;SDS011;67706;51.074;-1.796;2023-07-20T01:03:19;6.00;;;2.28;;
78410;SDS011;67706;51.074;-1.796;2023-07-20T01:08:18;4.53;;;2.35;;
78410;SDS011;67706;51.074;-1.796;2023-07-20T01:10:54;4.15;;;2.63;;
78410;SDS011;67706;51.074;-1.796;2023-07-20T01:13:24;3.75;;;1.98;;
78410;SDS011;67706;51.074;-1.796;2023-07-20T01:15:53;3.50;;;2.00;;
78410;SDS011;67706;51.074;-1.796;2023-07-20T01:18:22;3.20;;;2.03;;
78410;SDS011;67706;51.074;-1.796;2023-07-20T01:20:48;3.15;;;2.05;;
78410;SDS011;67706;51.074;-1.796;2023-07-20T01:29:11;4.85;;;2.30;;
78410;SDS011;67706;51.074;-1.796;2023-07-20T01:31:49;4.57;;;2.15;;
78410;SDS011;67706;51.074;-1.796;2023-07-20T01:34:18;4.85;;;1.95;;
78410;SDS011;67706;51.074;-1.796;2023-07-20T01:36:47;4.70;;;2.10;;
78410;SDS011;67706;51.074;-1.796;2023-07-20T01:39:16;4.22;;;2.08;;
78410;SDS011;67706;51.074;-1.796;2023-07-20T01:41:42;4.22;;;2.00;;
78410;SDS011;67706;51.074;-1.796;2023-07-20T01:44:08;3.25;;;1.98;;
78410;SDS011;67706;51.074;-1.796;2023-07-20T01:46:35;3.05;;;2.25;;
78410;SDS011;67706;51.074;-1.796;2023-07-20T01:49:02;5.68;;;2.28;;
78410;SDS011;67706;51.074;-1.796;2023-07-20T01:51:28;4.28;;;1.90;;
78410;SDS011;67706;51.074;-1.796;2023-07-20T01:56:20;8.52;;;2.72;;
78410;SDS011;67706;51.074;-1.796;2023-07-20T02:01:12;4.32;;;2.13;;
78410;SDS011;67706;51.074;-1.796;2023-07-20T02:03:38;4.00;;;2.20;;
78410;SDS011;67706;51.074;-1.796;2023-07-20T02:08:30;3.30;;;2.00;;
78410;SDS011;67706;51.074;-1.796;2023-07-20T02:10:56;4.05;;;2.40;;
78410;SDS011;67706;51.074;-1.796;2023-07-20T02:13:22;4.60;;;2.45;;
78410;SDS011;67706;51.074;-1.796;2023-07-20T02:15:49;3.72;;;2.17;;
78410;SDS011;67706;51.074;-1.796;2023-07-20T02:18:16;3.00;;;2.25;;
78410;SDS011;67706;51.074;-1.796;2023-07-20T02:23:08;4.18;;;2.08;;
78410;SDS011;67706;51.074;-1.796;2023-07-20T02:25:35;3.42;;;2.20;;
78410;SDS011;67706;51.074;-1.796;2023-07-20T02:30:27;3.88;;;2.35;;
78410;SDS011;67706;51.074;-1.796;2023-07-20T02:32:53;3.67;;;1.92;;
78410;SDS011;67706;51.074;-1.796;2023-07-20T02:37:45;4.60;;;1.90;;
78410;SDS011;67706;51.074;-1.796;2023-07-20T02:40:12;4.55;;;2.20;;
78410;SDS011;67706;51.074;-1.796;2023-07-20T02:42:38;3.20;;;1.98;;
78410;SDS011;67706;51.074;-1.796;2023-07-20T02:45:05;4.55;;;2.10;;
78410;SDS011;67706;51.074;-1.796;2023-07-20T02:47:31;5.47;;;1.90;;
78410;SDS011;67706;51.074;-1.796;2023-07-20T02:49:58;3.83;;;1.90;;
78410;SDS011;67706;51.074;-1.796;2023-07-20T02:52:24;4.90;;;2.13;;
78410;SDS011;67706;51.074;-1.796;2023-07-20T02:54:50;2.90;;;2.10;;
78410;SDS011;67706;51.074;-1.796;2023-07-20T02:57:17;3.33;;;1.90;;
78410;SDS011;67706;51.074;-1.796;2023-07-20T02:59:43;3.40;;;2.10;;
78410;SDS011;67706;51.074;-1.796;2023-07-20T03:02:09;4.32;;;1.95;;
78410;SDS011;67706;51.074;-1.796;2023-07-20T03:07:02;4.72;;;2.10;;
78410;SDS011;67706;51.074;-1.796;2023-07-20T03:09:28;3.95;;;2.08;;
78410;SDS011;67706;51.074;-1.796;2023-07-20T03:11:54;4.25;;;2.25;;
78410;SDS011;67706;51.074;-1.796;2023-07-20T03:14:21;4.22;;;2.22;;
78410;SDS011;67706;51.074;-1.796;2023-07-20T03:16:48;3.88;;;2.08;;
78410;SDS011;67706;51.074;-1.796;2023-07-20T03:19:15;5.07;;;2.97;;
78410;SDS011;67706;51.074;-1.796;2023-07-20T03:21:41;3.83;;;2.58;;
78410;SDS011;67706;51.074;-1.796;2023-07-20T03:24:07;4.63;;;2.00;;
78410;SDS011;67706;51.074;-1.796;2023-07-20T03:26:33;8.25;;;2.30;;
78410;SDS011;67706;51.074;-1.796;2023-07-20T03:28:59;3.55;;;2.42;;
78410;SDS011;67706;51.074;-1.796;2023-07-20T03:31:26;3.92;;;1.90;;
78410;SDS011;67706;51.074;-1.796;2023-07-20T03:33:52;4.05;;;2.33;;
78410;SDS011;67706;51.074;-1.796;2023-07-20T03:38:45;2.97;;;1.90;;
78410;SDS011;67706;51.074;-1.796;2023-07-20T03:41:11;2.85;;;1.85;;
78410;SDS011;67706;51.074;-1.796;2023-07-20T03:43:37;4.70;;;2.60;;
78410;SDS011;67706;51.074;-1.796;2023-07-20T03:46:04;3.90;;;2.03;;
78410;SDS011;67706;51.074;-1.796;2023-07-20T03:48:32;6.05;;;2.20;;
78410;SDS011;67706;51.074;-1.796;2023-07-20T03:50:59;4.60;;;2.63;;
78410;SDS011;67706;51.074;-1.796;2023-07-20T03:53:25;4.13;;;2.30;;
78410;SDS011;67706;51.074;-1.796;2023-07-20T03:55:52;4.47;;;2.28;;
78410;SDS011;67706;51.074;-1.796;2023-07-20T03:58:19;2.95;;;2.05;;
78410;SDS011;67706;51.074;-1.796;2023-07-20T04:00:46;4.10;;;2.15;;
78410;SDS011;67706;51.074;-1.796;2023-07-20T04:03:13;4.47;;;2.03;;
78410;SDS011;67706;51.074;-1.796;2023-07-20T04:08:06;5.85;;;2.08;;
78410;SDS011;67706;51.074;-1.796;2023-07-20T04:10:32;4.78;;;2.25;;
78410;SDS011;67706;51.074;-1.796;2023-07-20T04:12:58;5.00;;;2.30;;
78410;SDS011;67706;51.074;-1.796;2023-07-20T04:15:24;3.00;;;1.80;;
78410;SDS011;67706;51.074;-1.796;2023-07-20T04:17:50;4.18;;;2.10;;
78410;SDS011;67706;51.074;-1.796;2023-07-20T04:20:16;3.63;;;1.92;;
78410;SDS011;67706;51.074;-1.796;2023-07-20T04:22:44;13.55;;;3.00;;
78410;SDS011;67706;51.074;-1.796;2023-07-20T04:25:10;4.35;;;2.20;;
78410;SDS011;67706;51.074;-1.796;2023-07-20T04:27:36;4.10;;;2.03;;
78410;SDS011;67706;51.074;-1.796;2023-07-20T04:30:02;5.18;;;2.00;;
78410;SDS011;67706;51.074;-1.796;2023-07-20T04:32:29;5.30;;;2.20;;
78410;SDS011;67706;51.074;-1.796;2023-07-20T04:34:55;3.70;;;2.10;;
78410;SDS011;67706;51.074;-1.796;2023-07-20T04:37:21;3.35;;;2.10;;
78410;SDS011;67706;51.074;-1.796;2023-07-20T04:42:14;5.55;;;2.25;;
78410;SDS011;67706;51.074;-1.796;2023-07-20T04:44:41;3.33;;;1.98;;
78410;SDS011;67706;51.074;-1.796;2023-07-20T04:47:07;6.35;;;2.58;;
78410;SDS011;67706;51.074;-1.796;2023-07-20T04:49:33;3.25;;;2.15;;
78410;SDS011;67706;51.074;-1.796;2023-07-20T04:51:59;5.65;;;2.30;;
78410;SDS011;67706;51.074;-1.796;2023-07-20T04:54:25;5.15;;;2.35;;
78410;SDS011;67706;51.074;-1.796;2023-07-20T04:56:53;4.28;;;2.30;;
78410;SDS011;67706;51.074;-1.796;2023-07-20T04:59:19;4.00;;;2.20;;
78410;SDS011;67706;51.074;-1.796;2023-07-20T05:01:45;6.15;;;2.63;;
78410;SDS011;67706;51.074;-1.796;2023-07-20T05:04:11;4.07;;;2.17;;
78410;SDS011;67706;51.074;-1.796;2023-07-20T05:06:37;4.45;;;2.20;;
78410;SDS011;67706;51.074;-1.796;2023-07-20T05:09:03;4.00;;;2.25;;
78410;SDS011;67706;51.074;-1.796;2023-07-20T05:11:30;5.45;;;2.20;;
78410;SDS011;67706;51.074;-1.796;2023-07-20T05:13:57;6.40;;;3.30;;
78410;SDS011;67706;51.074;-1.796;2023-07-20T05:16:23;7.03;;;3.95;;
78410;SDS011;67706;51.074;-1.796;2023-07-20T05:18:49;4.18;;;2.30;;
78410;SDS011;67706;51.074;-1.796;2023-07-20T05:21:15;5.57;;;2.13;;
78410;SDS011;67706;51.074;-1.796;2023-07-20T05:23:41;4.50;;;1.80;;
78410;SDS011;67706;51.074;-1.796;2023-07-20T05:26:07;4.40;;;2.00;;
78410;SDS011;67706;51.074;-1.796;2023-07-20T05:28:34;4.55;;;2.20;;
78410;SDS011;67706;51.074;-1.796;2023-07-20T05:31:02;8.10;;;2.10;;
78410;SDS011;67706;51.074;-1.796;2023-07-20T05:33:29;4.70;;;2.40;;
78410;SDS011;67706;51.074;-1.796;2023-07-20T05:35:55;3.50;;;1.60;;
78410;SDS011;67706;51.074;-1.796;2023-07-20T05:38:21;2.15;;;1.27;;
78410;SDS011;67706;51.074;-1.796;2023-07-20T05:40:47;4.38;;;1.63;;
78410;SDS011;67706;51.074;-1.796;2023-07-20T05:43:13;2.95;;;1.98;;
78410;SDS011;67706;51.074;-1.796;2023-07-20T05:48:08;6.70;;;1.75;;
78410;SDS011;67706;51.074;-1.796;2023-07-20T05:50:36;3.83;;;1.58;;
78410;SDS011;67706;51.074;-1.796;2023-07-20T05:53:02;6.35;;;2.65;;
78410;SDS011;67706;51.074;-1.796;2023-07-20T05:55:28;3.08;;;1.88;;
78410;SDS011;67706;51.074;-1.796;2023-07-20T05:57:54;3.45;;;1.67;;
78410;SDS011;67706;51.074;-1.796;2023-07-20T06:00:21;3.47;;;1.70;;
78410;SDS011;67706;51.074;-1.796;2023-07-20T06:02:51;3.58;;;1.60;;
78410;SDS011;67706;51.074;-1.796;2023-07-20T06:05:18;3.35;;;1.30;;
78410;SDS011;67706;51.074;-1.796;2023-07-20T06:07:45;2.50;;;1.67;;
78410;SDS011;67706;51.074;-1.796;2023-07-20T06:10:11;4.07;;;1.58;;
78410;SDS011;67706;51.074;-1.796;2023-07-20T06:12:37;5.68;;;2.10;;
78410;SDS011;67706;51.074;-1.796;2023-07-20T06:15:03;3.80;;;2.00;;
78410;SDS011;67706;51.074;-1.796;2023-07-20T06:17:31;3.15;;;1.63;;
78410;SDS011;67706;51.074;-1.796;2023-07-20T06:19:58;4.38;;;1.50;;
78410;SDS011;67706;51.074;-1.796;2023-07-20T06:22:24;4.22;;;1.80;;
78410;SDS011;67706;51.074;-1.796;2023-07-20T06:24:50;3.08;;;1.58;;
78410;SDS011;67706;51.074;-1.796;2023-07-20T06:27:16;5.88;;;1.60;;
78410;SDS011;67706;51.074;-1.796;2023-07-20T06:32:08;4.35;;;1.90;;
78410;SDS011;67706;51.074;-1.796;2023-07-20T06:34:35;3.97;;;1.77;;
78410;SDS011;67706;51.074;-1.796;2023-07-20T06:37:03;5.07;;;1.98;;
78410;SDS011;67706;51.074;-1.796;2023-07-20T06:39:30;2.60;;;1.58;;
78410;SDS011;67706;51.074;-1.796;2023-07-20T06:41:56;3.22;;;1.60;;
78410;SDS011;67706;51.074;-1.796;2023-07-20T06:44:22;4.07;;;1.83;;
78410;SDS011;67706;51.074;-1.796;2023-07-20T06:46:48;3.83;;;1.83;;
78410;SDS011;67706;51.074;-1.796;2023-07-20T06:49:23;5.53;;;1.77;;
78410;SDS011;67706;51.074;-1.796;2023-07-20T06:51:51;3.88;;;2.00;;
78410;SDS011;67706;51.074;-1.796;2023-07-20T06:54:17;5.25;;;1.85;;
78410;SDS011;67706;51.074;-1.796;2023-07-20T06:56:44;2.75;;;1.60;;
78410;SDS011;67706;51.074;-1.796;2023-07-20T06:59:10;2.95;;;1.98;;
78410;SDS011;67706;51.074;-1.796;2023-07-20T07:01:36;7.55;;;2.00;;
78410;SDS011;67706;51.074;-1.796;2023-07-20T07:04:02;2.95;;;1.50;;
78410;SDS011;67706;51.074;-1.796;2023-07-20T07:06:28;3.35;;;1.65;;
78410;SDS011;67706;51.074;-1.796;2023-07-20T07:08:55;4.32;;;1.95;;
78410;SDS011;67706;51.074;-1.796;2023-07-20T07:11:21;3.35;;;1.90;;
78410;SDS011;67706;51.074;-1.796;2023-07-20T07:13:48;2.45;;;1.73;;
78410;SDS011;67706;51.074;-1.796;2023-07-20T07:16:16;2.78;;;1.70;;
78410;SDS011;67706;51.074;-1.796;2023-07-20T07:18:43;2.83;;;1.40;;
78410;SDS011;67706;51.074;-1.796;2023-07-20T07:21:10;1.90;;;1.38;;
78410;SDS011;67706;51.074;-1.796;2023-07-20T07:26:03;3.70;;;1.30;;
78410;SDS011;67706;51.074;-1.796;2023-07-20T07:28:30;2.38;;;1.50;;
78410;SDS011;67706;51.074;-1.796;2023-07-20T07:30:57;2.80;;;1.30;;
78410;SDS011;67706;51.074;-1.796;2023-07-20T07:33:24;3.05;;;1.60;;
78410;SDS011;67706;51.074;-1.796;2023-07-20T07:35:50;2.90;;;1.15;;
78410;SDS011;67706;51.074;-1.796;2023-07-20T07:38:17;2.85;;;1.13;;
78410;SDS011;67706;51.074;-1.796;2023-07-20T07:40:44;3.33;;;1.80;;
78410;SDS011;67706;51.074;-1.796;2023-07-20T07:43:10;3.60;;;1.33;;
78410;SDS011;67706;51.074;-1.796;2023-07-20T07:45:37;2.38;;;1.33;;
78410;SDS011;67706;51.074;-1.796;2023-07-20T07:48:04;3.35;;;1.23;;
78410;SDS011;67706;51.074;-1.796;2023-07-20T07:50:30;2.47;;;1.33;;
78410;SDS011;67706;51.074;-1.796;2023-07-20T07:52:56;3.15;;;1.50;;
78410;SDS011;67706;51.074;-1.796;2023-07-20T07:55:23;2.30;;;1.40;;
78410;SDS011;67706;51.074;-1.796;2023-07-20T07:57:50;2.80;;;1.40;;
78410;SDS011;67706;51.074;-1.796;2023-07-20T08:02:44;2.40;;;1.10;;
78410;SDS011;67706;51.074;-1.796;2023-07-20T08:05:12;2.67;;;1.38;;
78410;SDS011;67706;51.074;-1.796;2023-07-20T08:07:39;2.50;;;1.38;;
78410;SDS011;67706;51.074;-1.796;2023-07-20T08:12:33;2.78;;;1.52;;
78410;SDS011;67706;51.074;-1.796;2023-07-20T08:14:59;3.63;;;1.10;;
78410;SDS011;67706;51.074;-1.796;2023-07-20T08:19:51;6.28;;;1.40;;
78410;SDS011;67706;51.074;-1.796;2023-07-20T08:22:18;2.97;;;1.40;;
78410;SDS011;67706;51.074;-1.796;2023-07-20T08:24:44;3.40;;;1.33;;
78410;SDS011;67706;51.074;-1.796;2023-07-20T08:27:10;4.60;;;1.10;;
78410;SDS011;67706;51.074;-1.796;2023-07-20T08:32:03;3.22;;;1.27;;
78410;SDS011;67706;51.074;-1.796;2023-07-20T08:34:30;3.78;;;1.45;;
78410;SDS011;67706;51.074;-1.796;2023-07-20T08:39:23;2.28;;;1.17;;
78410;SDS011;67706;51.074;-1.796;2023-07-20T08:41:49;1.80;;;1.20;;
78410;SDS011;67706;51.074;-1.796;2023-07-20T08:44:15;4.28;;;1.13;;
78410;SDS011;67706;51.074;-1.796;2023-07-20T08:46:41;5.47;;;1.20;;
78410;SDS011;67706;51.074;-1.796;2023-07-20T08:49:09;2.85;;;1.02;;
78410;SDS011;67706;51.074;-1.796;2023-07-20T08:51:37;1.95;;;0.98;;
78410;SDS011;67706;51.074;-1.796;2023-07-20T08:54:04;1.15;;;0.80;;
78410;SDS011;67706;51.074;-1.796;2023-07-20T08:56:31;2.30;;;1.00;;
78410;SDS011;67706;51.074;-1.796;2023-07-20T08:58:59;1.48;;;0.98;;
78410;SDS011;67706;51.074;-1.796;2023-07-20T09:01:26;2.15;;;1.20;;
78410;SDS011;67706;51.074;-1.796;2023-07-20T09:03:54;1.83;;;0.93;;
78410;SDS011;67706;51.074;-1.796;2023-07-20T09:06:20;3.22;;;1.10;;
78410;SDS011;67706;51.074;-1.796;2023-07-20T09:08:46;4.32;;;1.05;;
78410;SDS011;67706;51.074;-1.796;2023-07-20T09:11:12;3.25;;;1.40;;
78410;SDS011;67706;51.074;-1.796;2023-07-20T09:13:39;3.03;;;1.00;;
78410;SDS011;67706;51.074;-1.796;2023-07-20T09:16:05;5.28;;;1.23;;
78410;SDS011;67706;51.074;-1.796;2023-07-20T09:21:00;1.83;;;0.93;;
78410;SDS011;67706;51.074;-1.796;2023-07-20T09:23:30;1.52;;;1.13;;
78410;SDS011;67706;51.074;-1.796;2023-07-20T09:25:57;1.60;;;1.02;;
78410;SDS011;67706;51.074;-1.796;2023-07-20T09:28:23;1.67;;;0.80;;
78410;SDS011;67706;51.074;-1.796;2023-07-20T09:30:50;2.20;;;0.85;;
78410;SDS011;67706;51.074;-1.796;2023-07-20T09:33:21;0.70;;;0.60;;
78410;SDS011;67706;51.074;-1.796;2023-07-20T09:35:47;1.00;;;0.73;;
78410;SDS011;67706;51.074;-1.796;2023-07-20T09:38:13;1.30;;;0.70;;
78410;SDS011;67706;51.074;-1.796;2023-07-20T09:40:41;1.85;;;1.00;;
78410;SDS011;67706;51.074;-1.796;2023-07-20T09:43:07;1.65;;;0.80;;
78410;SDS011;67706;51.074;-1.796;2023-07-20T09:45:34;1.15;;;0.80;;
78410;SDS011;67706;51.074;-1.796;2023-07-20T09:48:05;1.27;;;0.80;;
78410;SDS011;67706;51.074;-1.796;2023-07-20T09:50:32;1.67;;;0.98;;
78410;SDS011;67706;51.074;-1.796;2023-07-20T09:52:58;6.43;;;1.27;;
78410;SDS011;67706;51.074;-1.796;2023-07-20T09:55:26;2.65;;;0.95;;
78410;SDS011;67706;51.074;-1.796;2023-07-20T10:00:18;1.90;;;0.88;;
78410;SDS011;67706;51.074;-1.796;2023-07-20T10:02:45;2.03;;;0.88;;
78410;SDS011;67706;51.074;-1.796;2023-07-20T10:05:13;2.92;;;1.10;;
78410;SDS011;67706;51.074;-1.796;2023-07-20T10:07:43;2.42;;;0.90;;
78410;SDS011;67706;51.074;-1.796;2023-07-20T10:10:12;3.60;;;1.10;;
78410;SDS011;67706;51.074;-1.796;2023-07-20T10:12:39;0.93;;;0.80;;
78410;SDS011;67706;51.074;-1.796;2023-07-20T10:15:10;2.22;;;0.95;;
78410;SDS011;67706;51.074;-1.796;2023-07-20T10:17:47;0.77;;;0.68;;
78410;SDS011;67706;51.074;-1.796;2023-07-20T10:20:23;2.92;;;0.75;;
78410;SDS011;67706;51.074;-1.796;2023-07-20T10:22:51;1.73;;;0.80;;
78410;SDS011;67706;51.074;-1.796;2023-07-20T10:25:19;1.15;;;0.73;;
78410;SDS011;67706;51.074;-1.796;2023-07-20T10:27:48;2.88;;;0.73;;
78410;SDS011;67706;51.074;-1.796;2023-07-20T10:30:14;1.60;;;0.75;;
78410;SDS011;67706;51.074;-1.796;2023-07-20T10:32:42;3.88;;;0.95;;
78410;SDS011;67706;51.074;-1.796;2023-07-20T10:35:13;2.38;;;0.90;;
78410;SDS011;67706;51.074;-1.796;2023-07-20T10:37:46;0.88;;;0.70;;
78410;SDS011;67706;51.074;-1.796;2023-07-20T10:40:28;2.40;;;1.27;;
78410;SDS011;67706;51.074;-1.796;2023-07-20T10:42:57;3.20;;;0.70;;
78410;SDS011;67706;51.074;-1.796;2023-07-20T10:45:32;1.10;;;0.60;;
78410;SDS011;67706;51.074;-1.796;2023-07-20T10:48:02;0.90;;;0.52;;
78410;SDS011;67706;51.074;-1.796;2023-07-20T10:50:29;1.55;;;0.70;;
78410;SDS011;67706;51.074;-1.796;2023-07-20T10:53:04;1.40;;;0.70;;
78410;SDS011;67706;51.074;-1.796;2023-07-20T10:55:35;0.85;;;0.60;;
78410;SDS011;67706;51.074;-1.796;2023-07-20T10:58:07;1.90;;;0.57;;
78410;SDS011;67706;51.074;-1.796;2023-07-20T11:00:35;2.00;;;0.65;;
78410;SDS011;67706;51.074;-1.796;2023-07-20T11:03:01;1.13;;;0.50;;
78410;SDS011;67706;51.074;-1.796;2023-07-20T11:05:38;1.20;;;0.80;;
78410;SDS011;67706;51.074;-1.796;2023-07-20T11:08:05;2.08;;;0.77;;
78410;SDS011;67706;51.074;-1.796;2023-07-20T11:10:35;1.80;;;0.70;;
78410;SDS011;67706;51.074;-1.796;2023-07-20T11:13:15;2.15;;;0.80;;
78410;SDS011;67706;51.074;-1.796;2023-07-20T11:15:47;1.23;;;0.55;;
78410;SDS011;67706;51.074;-1.796;2023-07-20T11:18:27;1.15;;;0.60;;
78410;SDS011;67706;51.074;-1.796;2023-07-20T11:20:53;1.33;;;0.77;;
78410;SDS011;67706;51.074;-1.796;2023-07-20T11:23:20;3.55;;;0.85;;
78410;SDS011;67706;51.074;-1.796;2023-07-20T11:25:46;2.20;;;1.00;;
78410;SDS011;67706;51.074;-1.796;2023-07-20T11:28:12;2.15;;;1.00;;
78410;SDS011;67706;51.074;-1.796;2023-07-20T11:30:38;1.75;;;0.75;;
78410;SDS011;67706;51.074;-1.796;2023-07-20T11:33:04;4.55;;;0.60;;
78410;SDS011;67706;51.074;-1.796;2023-07-20T11:35:34;1.35;;;0.50;;
78410;SDS011;67706;51.074;-1.796;2023-07-20T11:38:01;1.33;;;0.93;;
78410;SDS011;67706;51.074;-1.796;2023-07-20T11:40:28;1.08;;;0.70;;
78410;SDS011;67706;51.074;-1.796;2023-07-20T11:42:54;1.23;;;0.82;;
78410;SDS011;67706;51.074;-1.796;2023-07-20T11:45:20;1.70;;;0.60;;
78410;SDS011;67706;51.074;-1.796;2023-07-20T11:47:46;1.85;;;0.77;;
78410;SDS011;67706;51.074;-1.796;2023-07-20T11:50:13;1.13;;;0.60;;
78410;SDS011;67706;51.074;-1.796;2023-07-20T11:52:39;1.40;;;0.50;;
78410;SDS011;67706;51.074;-1.796;2023-07-20T11:55:06;0.93;;;0.70;;
78410;SDS011;67706;51.074;-1.796;2023-07-20T11:57:34;1.77;;;0.80;;
78410;SDS011;67706;51.074;-1.796;2023-07-20T12:00:01;2.70;;;0.55;;
78410;SDS011;67706;51.074;-1.796;2023-07-20T12:02:34;2.08;;;0.77;;
78410;SDS011;67706;51.074;-1.796;2023-07-20T12:05:01;1.20;;;0.40;;
78410;SDS011;67706;51.074;-1.796;2023-07-20T12:07:28;1.08;;;0.75;;
78410;SDS011;67706;51.074;-1.796;2023-07-20T12:10:05;1.40;;;0.70;;
78410;SDS011;67706;51.074;-1.796;2023-07-20T12:12:32;1.70;;;0.60;;
78410;SDS011;67706;51.074;-1.796;2023-07-20T12:15:12;2.13;;;0.70;;
78410;SDS011;67706;51.074;-1.796;2023-07-20T12:17:41;1.63;;;0.75;;
78410;SDS011;67706;51.074;-1.796;2023-07-20T12:20:08;1.45;;;0.70;;
78410;SDS011;67706;51.074;-1.796;2023-07-20T12:22:38;0.95;;;0.68;;
78410;SDS011;67706;51.074;-1.796;2023-07-20T12:25:05;1.35;;;0.68;;
78410;SDS011;67706;51.074;-1.796;2023-07-20T12:27:31;3.63;;;0.63;;
78410;SDS011;67706;51.074;-1.796;2023-07-20T12:29:57;2.15;;;0.60;;
78410;SDS011;67706;51.074;-1.796;2023-07-20T12:32:24;2.72;;;1.13;;
78410;SDS011;67706;51.074;-1.796;2023-07-20T12:34:50;1.15;;;0.60;;
78410;SDS011;67706;51.074;-1.796;2023-07-20T12:37:17;2.20;;;0.73;;
78410;SDS011;67706;51.074;-1.796;2023-07-20T12:39:43;1.42;;;0.60;;
78410;SDS011;67706;51.074;-1.796;2023-07-20T12:42:12;4.43;;;0.77;;
78410;SDS011;67706;51.074;-1.796;2023-07-20T12:44:40;1.05;;;0.60;;
78410;SDS011;67706;51.074;-1.796;2023-07-20T12:47:06;2.63;;;0.68;;
78410;SDS011;67706;51.074;-1.796;2023-07-20T12:49:33;1.20;;;0.70;;
78410;SDS011;67706;51.074;-1.796;2023-07-20T12:51:59;1.35;;;0.70;;
78410;SDS011;67706;51.074;-1.796;2023-07-20T12:54:25;1.13;;;0.60;;
78410;SDS011;67706;51.074;-1.796;2023-07-20T12:56:51;1.90;;;0.90;;
78410;SDS011;67706;51.074;-1.796;2023-07-20T12:59:17;2.40;;;0.80;;
78410;SDS011;67706;51.074;-1.796;2023-07-20T13:01:43;0.50;;;0.50;;
78410;SDS011;67706;51.074;-1.796;2023-07-20T13:04:09;0.85;;;0.57;;
78410;SDS011;67706;51.074;-1.796;2023-07-20T13:06:36;1.05;;;0.57;;
78410;SDS011;67706;51.074;-1.796;2023-07-20T13:09:02;1.30;;;0.70;;
78410;SDS011;67706;51.074;-1.796;2023-07-20T13:11:29;2.92;;;0.60;;
78410;SDS011;67706;51.074;-1.796;2023-07-20T13:13:55;1.00;;;0.60;;
78410;SDS011;67706;51.074;-1.796;2023-07-20T13:16:22;1.58;;;0.70;;
78410;SDS011;67706;51.074;-1.796;2023-07-20T13:18:48;1.85;;;0.80;;
78410;SDS011;67706;51.074;-1.796;2023-07-20T13:21:14;1.85;;;0.70;;
78410;SDS011;67706;51.074;-1.796;2023-07-20T13:23:40;1.27;;;0.70;;
78410;SDS011;67706;51.074;-1.796;2023-07-20T13:26:06;1.00;;;0.50;;
78410;SDS011;67706;51.074;-1.796;2023-07-20T13:28:33;0.80;;;0.50;;
78410;SDS011;67706;51.074;-1.796;2023-07-20T13:30:59;1.30;;;0.60;;
78410;SDS011;67706;51.074;-1.796;2023-07-20T13:33:25;3.17;;;0.70;;
78410;SDS011;67706;51.074;-1.796;2023-07-20T13:35:51;1.00;;;0.70;;
78410;SDS011;67706;51.074;-1.796;2023-07-20T13:38:17;1.90;;;0.82;;
78410;SDS011;67706;51.074;-1.796;2023-07-20T13:40:44;1.95;;;0.82;;
78410;SDS011;67706;51.074;-1.796;2023-07-20T13:43:10;1.40;;;0.80;;
78410;SDS011;67706;51.074;-1.796;2023-07-20T13:45:37;2.70;;;0.60;;
78410;SDS011;67706;51.074;-1.796;2023-07-20T13:48:02;1.77;;;0.85;;
78410;SDS011;67706;51.074;-1.796;2023-07-20T13:50:28;1.90;;;0.68;;
78410;SDS011;67706;51.074;-1.796;2023-07-20T13:52:55;2.60;;;1.02;;
78410;SDS011;67706;51.074;-1.796;2023-07-20T13:55:21;1.48;;;0.70;;
78410;SDS011;67706;51.074;-1.796;2023-07-20T13:57:48;2.38;;;1.10;;
78410;SDS011;67706;51.074;-1.796;2023-07-20T14:00:14;1.25;;;0.70;;
78410;SDS011;67706;51.074;-1.796;2023-07-20T14:02:41;2.58;;;0.95;;
78410;SDS011;67706;51.074;-1.796;2023-07-20T14:05:07;1.52;;;0.60;;
78410;SDS011;67706;51.074;-1.796;2023-07-20T14:07:34;1.42;;;0.60;;
78410;SDS011;67706;51.074;-1.796;2023-07-20T14:10:01;1.30;;;0.80;;
78410;SDS011;67706;51.074;-1.796;2023-07-20T14:12:27;0.70;;;0.63;;
78410;SDS011;67706;51.074;-1.796;2023-07-20T14:14:54;0.80;;;0.68;;
78410;SDS011;67706;51.074;-1.796;2023-07-20T14:17:20;1.92;;;0.70;;
78410;SDS011;67706;51.074;-1.796;2023-07-20T14:19:46;0.68;;;0.65;;
78410;SDS011;67706;51.074;-1.796;2023-07-20T14:22:13;2.40;;;0.80;;
78410;SDS011;67706;51.074;-1.796;2023-07-20T14:24:39;1.85;;;0.90;;
78410;SDS011;67706;51.074;-1.796;2023-07-20T14:27:05;1.13;;;0.60;;
78410;SDS011;67706;51.074;-1.796;2023-07-20T14:29:31;1.67;;;0.80;;
78410;SDS011;67706;51.074;-1.796;2023-07-20T14:31:58;3.05;;;0.90;;
78410;SDS011;67706;51.074;-1.796;2023-07-20T14:34:25;2.72;;;0.65;;
78410;SDS011;67706;51.074;-1.796;2023-07-20T14:36:51;1.08;;;0.70;;
78410;SDS011;67706;51.074;-1.796;2023-07-20T14:39:17;0.90;;;0.60;;
78410;SDS011;67706;51.074;-1.796;2023-07-20T14:41:43;1.35;;;0.82;;
78410;SDS011;67706;51.074;-1.796;2023-07-20T14:44:09;0.98;;;0.65;;
78410;SDS011;67706;51.074;-1.796;2023-07-20T14:46:35;1.25;;;0.70;;
78410;SDS011;67706;51.074;-1.796;2023-07-20T14:49:02;0.98;;;0.50;;
78410;SDS011;67706;51.074;-1.796;2023-07-20T14:51:28;1.60;;;0.80;;
78410;SDS011;67706;51.074;-1.796;2023-07-20T14:53:58;1.70;;;0.80;;
78410;SDS011;67706;51.074;-1.796;2023-07-20T14:56:24;2.08;;;0.80;;
78410;SDS011;67706;51.074;-1.796;2023-07-20T14:58:51;1.38;;;0.70;;
78410;SDS011;67706;51.074;-1.796;2023-07-20T15:01:17;1.40;;;0.85;;
78410;SDS011;67706;51.074;-1.796;2023-07-20T15:03:43;1.92;;;0.98;;
78410;SDS011;67706;51.074;-1.796;2023-07-20T15:06:10;0.88;;;0.43;;
78410;SDS011;67706;51.074;-1.796;2023-07-20T15:08:37;1.23;;;0.82;;
78410;SDS011;67706;51.074;-1.796;2023-07-20T15:11:03;1.08;;;0.80;;
78410;SDS011;67706;51.074;-1.796;2023-07-20T15:13:29;1.23;;;0.73;;
78410;SDS011;67706;51.074;-1.796;2023-07-20T15:15:55;1.30;;;0.82;;
78410;SDS011;67706;51.074;-1.796;2023-07-20T15:18:21;2.17;;;0.75;;
78410;SDS011;67706;51.074;-1.796;2023-07-20T15:20:47;1.88;;;1.20;;
78410;SDS011;67706;51.074;-1.796;2023-07-20T15:23:19;2.97;;;0.80;;
78410;SDS011;67706;51.074;-1.796;2023-07-20T15:25:45;1.95;;;1.10;;
78410;SDS011;67706;51.074;-1.796;2023-07-20T15:28:11;1.95;;;1.00;;
78410;SDS011;67706;51.074;-1.796;2023-07-20T15:30:37;2.40;;;0.80;;
78410;SDS011;67706;51.074;-1.796;2023-07-20T15:33:03;1.38;;;0.90;;
78410;SDS011;67706;51.074;-1.796;2023-07-20T15:35:29;2.72;;;0.80;;
78410;SDS011;67706;51.074;-1.796;2023-07-20T15:37:55;2.08;;;0.90;;